sensor_id;sensor_type;location;lat;lon;timestamp;P1;durP1;ratioP1;P2;durP2;ratioP2
48526;SDS011;34317;51.660;5.824;2023-09-30T15:03:33;4.63;;;2.38;;
48526;SDS011;34317;51.660;5.824;2023-09-30T15:06:04;6.28;;;1.80;;
48526;SDS011;34317;51.660;5.824;2023-09-30T15:08:32;6.97;;;2.30;;
48526;SDS011;34317;51.660;5.824;2023-09-30T15:11:00;6.60;;;2.25;;
48526;SDS011;34317;51.660;5.824;2023-09-30T15:13:28;4.78;;;2.30;;
48526;SDS011;34317;51.660;5.824;2023-09-30T15:15:55;7.28;;;2.72;;
48526;SDS011;34317;51.660;5.824;2023-09-30T15:18:23;7.18;;;2.65;;
48526;SDS011;34317;51.660;5.824;2023-09-30T15:20:50;4.65;;;2.35;;
48526;SDS011;34317;51.660;5.824;2023-09-30T15:23:17;6.35;;;2.30;;
48526;SDS011;34317;51.660;5.824;2023-09-30T15:25:45;5.40;;;2.67;;
48526;SDS011;34317;51.660;5.824;2023-09-30T15:28:12;5.20;;;2.25;;
48526;SDS011;34317;51.660;5.824;2023-09-30T15:30:40;6.68;;;2.40;;
48526;SDS011;34317;51.660;5.824;2023-09-30T15:33:07;6.68;;;2.70;;
48526;SDS011;34317;51.660;5.824;2023-09-30T15:35:35;4.00;;;2.13;;
48526;SDS011;34317;51.660;5.824;2023-09-30T15:38:03;5.50;;;2.40;;
48526;SDS011;34317;51.660;5.824;2023-09-30T15:40:31;4.43;;;2.47;;
48526;SDS011;34317;51.660;5.824;2023-09-30T15:42:59;6.32;;;2.55;;
48526;SDS011;34317;51.660;5.824;2023-09-30T15:45:26;3.85;;;2.20;;
48526;SDS011;34317;51.660;5.824;2023-09-30T15:47:54;6.00;;;2.90;;
48526;SDS011;34317;51.660;5.824;2023-09-30T15:50:23;6.32;;;2.40;;
48526;SDS011;34317;51.660;5.824;2023-09-30T15:52:50;5.07;;;2.58;;
48526;SDS011;34317;51.660;5.824;2023-09-30T15:55:17;5.45;;;2.40;;
48526;SDS011;34317;51.660;5.824;2023-09-30T15:57:44;8.93;;;3.10;;
48526;SDS011;34317;51.660;5.824;2023-09-30T16:00:12;5.88;;;2.60;;
48526;SDS011;34317;51.660;5.824;2023-09-30T16:02:39;5.78;;;2.90;;
48526;SDS011;34317;51.660;5.824;2023-09-30T16:05:07;6.43;;;3.20;;
48526;SDS011;34317;51.660;5.824;2023-09-30T16:07:34;5.60;;;3.15;;
48526;SDS011;34317;51.660;5.824;2023-09-30T16:10:02;6.88;;;3.50;;
48526;SDS011;34317;51.660;5.824;2023-09-30T16:12:29;7.57;;;3.20;;
48526;SDS011;34317;51.660;5.824;2023-09-30T16:14:56;6.47;;;3.38;;
48526;SDS011;34317;51.660;5.824;2023-09-30T16:17:24;5.30;;;3.03;;
48526;SDS011;34317;51.660;5.824;2023-09-30T16:19:51;5.65;;;3.17;;
48526;SDS011;34317;51.660;5.824;2023-09-30T16:22:19;7.22;;;3.55;;
48526;SDS011;34317;51.660;5.824;2023-09-30T16:24:46;7.32;;;3.80;;
48526;SDS011;34317;51.660;5.824;2023-09-30T16:27:14;6.40;;;3.38;;
48526;SDS011;34317;51.660;5.824;2023-09-30T16:29:41;6.93;;;3.60;;
48526;SDS011;34317;51.660;5.824;2023-09-30T16:32:08;7.13;;;3.22;;
48526;SDS011;34317;51.660;5.824;2023-09-30T16:34:36;6.50;;;3.40;;
48526;SDS011;34317;51.660;5.824;2023-09-30T16:37:03;5.97;;;3.25;;
48526;SDS011;34317;51.660;5.824;2023-09-30T16:39:30;6.57;;;3.22;;
48526;SDS011;34317;51.660;5.824;2023-09-30T16:41:58;8.02;;;3.65;;
48526;SDS011;34317;51.660;5.824;2023-09-30T16:44:25;6.60;;;3.35;;
48526;SDS011;34317;51.660;5.824;2023-09-30T16:46:53;7.55;;;3.42;;
48526;SDS011;34317;51.660;5.824;2023-09-30T16:49:21;7.30;;;3.70;;
48526;SDS011;34317;51.660;5.824;2023-09-30T16:51:48;8.45;;;3.63;;
48526;SDS011;34317;51.660;5.824;2023-09-30T16:54:16;6.63;;;3.58;;
48526;SDS011;34317;51.660;5.824;2023-09-30T16:56:43;8.05;;;3.38;;
48526;SDS011;34317;51.660;5.824;2023-09-30T16:59:11;7.70;;;3.50;;
48526;SDS011;34317;51.660;5.824;2023-09-30T17:01:40;6.50;;;3.45;;
48526;SDS011;34317;51.660;5.824;2023-09-30T17:04:08;6.70;;;3.10;;
48526;SDS011;34317;51.660;5.824;2023-09-30T17:06:35;8.63;;;3.60;;
48526;SDS011;34317;51.660;5.824;2023-09-30T17:09:02;6.80;;;3.20;;
48526;SDS011;34317;51.660;5.824;2023-09-30T17:11:30;7.07;;;3.50;;
48526;SDS011;34317;51.660;5.824;2023-09-30T17:13:57;7.13;;;4.10;;
48526;SDS011;34317;51.660;5.824;2023-09-30T17:16:25;10.55;;;4.70;;
48526;SDS011;34317;51.660;5.824;2023-09-30T17:18:52;10.35;;;4.07;;
48526;SDS011;34317;51.660;5.824;2023-09-30T17:21:21;10.85;;;4.20;;
48526;SDS011;34317;51.660;5.824;2023-09-30T17:23:48;8.80;;;3.83;;
48526;SDS011;34317;51.660;5.824;2023-09-30T17:26:15;10.88;;;4.00;;
48526;SDS011;34317;51.660;5.824;2023-09-30T17:28:42;6.60;;;3.47;;
48526;SDS011;34317;51.660;5.824;2023-09-30T17:31:11;7.95;;;3.65;;
48526;SDS011;34317;51.660;5.824;2023-09-30T17:33:39;6.43;;;3.20;;
48526;SDS011;34317;51.660;5.824;2023-09-30T17:36:08;6.22;;;3.30;;
48526;SDS011;34317;51.660;5.824;2023-09-30T17:38:35;7.32;;;3.80;;
48526;SDS011;34317;51.660;5.824;2023-09-30T17:41:05;7.00;;;3.58;;
48526;SDS011;34317;51.660;5.824;2023-09-30T17:43:34;8.75;;;3.38;;
48526;SDS011;34317;51.660;5.824;2023-09-30T17:46:11;6.60;;;3.30;;
48526;SDS011;34317;51.660;5.824;2023-09-30T17:48:47;7.97;;;3.58;;
48526;SDS011;34317;51.660;5.824;2023-09-30T17:51:16;6.45;;;3.42;;
48526;SDS011;34317;51.660;5.824;2023-09-30T17:53:47;5.80;;;3.55;;
48526;SDS011;34317;51.660;5.824;2023-09-30T17:56:16;7.32;;;3.47;;
48526;SDS011;34317;51.660;5.824;2023-09-30T17:58:58;7.57;;;3.65;;
48526;SDS011;34317;51.660;5.824;2023-09-30T18:01:27;7.55;;;3.58;;
48526;SDS011;34317;51.660;5.824;2023-09-30T18:03:54;7.65;;;3.85;;
48526;SDS011;34317;51.660;5.824;2023-09-30T18:06:22;9.77;;;3.83;;
48526;SDS011;34317;51.660;5.824;2023-09-30T18:08:49;10.57;;;5.10;;
48526;SDS011;34317;51.660;5.824;2023-09-30T18:11:17;14.98;;;6.38;;
48526;SDS011;34317;51.660;5.824;2023-09-30T18:13:45;10.13;;;5.38;;
48526;SDS011;34317;51.660;5.824;2023-09-30T18:16:13;8.50;;;4.35;;
48526;SDS011;34317;51.660;5.824;2023-09-30T18:18:40;10.73;;;4.95;;
48526;SDS011;34317;51.660;5.824;2023-09-30T18:21:09;8.43;;;4.32;;
48526;SDS011;34317;51.660;5.824;2023-09-30T18:23:39;9.45;;;3.95;;
48526;SDS011;34317;51.660;5.824;2023-09-30T18:26:07;9.63;;;4.50;;
48526;SDS011;34317;51.660;5.824;2023-09-30T18:28:34;9.30;;;4.50;;
48526;SDS011;34317;51.660;5.824;2023-09-30T18:31:01;8.35;;;4.35;;
48526;SDS011;34317;51.660;5.824;2023-09-30T18:33:30;8.30;;;4.35;;
48526;SDS011;34317;51.660;5.824;2023-09-30T18:35:57;9.52;;;4.43;;
48526;SDS011;34317;51.660;5.824;2023-09-30T18:38:25;9.05;;;4.65;;
48526;SDS011;34317;51.660;5.824;2023-09-30T18:40:53;8.23;;;4.70;;
48526;SDS011;34317;51.660;5.824;2023-09-30T18:43:20;9.73;;;5.07;;
48526;SDS011;34317;51.660;5.824;2023-09-30T18:45:49;11.57;;;5.10;;
48526;SDS011;34317;51.660;5.824;2023-09-30T18:48:16;7.65;;;4.68;;
48526;SDS011;34317;51.660;5.824;2023-09-30T18:50:47;8.18;;;4.80;;
48526;SDS011;34317;51.660;5.824;2023-09-30T18:53:17;10.52;;;5.13;;
48526;SDS011;34317;51.660;5.824;2023-09-30T18:55:45;10.00;;;5.13;;
48526;SDS011;34317;51.660;5.824;2023-09-30T18:58:16;11.05;;;5.00;;
48526;SDS011;34317;51.660;5.824;2023-09-30T19:00:44;9.02;;;4.80;;
48526;SDS011;34317;51.660;5.824;2023-09-30T19:03:14;8.63;;;5.03;;
48526;SDS011;34317;51.660;5.824;2023-09-30T19:05:43;10.55;;;5.00;;
48526;SDS011;34317;51.660;5.824;2023-09-30T19:08:10;11.85;;;4.70;;
48526;SDS011;34317;51.660;5.824;2023-09-30T19:10:38;9.15;;;4.43;;
48526;SDS011;34317;51.660;5.824;2023-09-30T19:13:05;8.98;;;5.00;;
48526;SDS011;34317;51.660;5.824;2023-09-30T19:15:32;10.32;;;5.30;;
48526;SDS011;34317;51.660;5.824;2023-09-30T19:17:59;9.60;;;5.38;;
48526;SDS011;34317;51.660;5.824;2023-09-30T19:20:26;7.07;;;4.70;;
48526;SDS011;34317;51.660;5.824;2023-09-30T19:22:54;8.98;;;5.22;;
48526;SDS011;34317;51.660;5.824;2023-09-30T19:25:21;11.57;;;5.30;;
48526;SDS011;34317;51.660;5.824;2023-09-30T19:27:50;11.30;;;5.90;;
48526;SDS011;34317;51.660;5.824;2023-09-30T19:30:18;10.25;;;5.68;;
48526;SDS011;34317;51.660;5.824;2023-09-30T19:32:46;10.65;;;6.00;;
48526;SDS011;34317;51.660;5.824;2023-09-30T19:35:13;16.40;;;9.43;;
48526;SDS011;34317;51.660;5.824;2023-09-30T19:37:41;25.60;;;11.18;;
48526;SDS011;34317;51.660;5.824;2023-09-30T19:40:08;17.25;;;7.65;;
48526;SDS011;34317;51.660;5.824;2023-09-30T19:42:38;12.15;;;5.82;;
48526;SDS011;34317;51.660;5.824;2023-09-30T19:45:06;12.73;;;5.32;;
48526;SDS011;34317;51.660;5.824;2023-09-30T19:47:34;10.65;;;5.38;;
48526;SDS011;34317;51.660;5.824;2023-09-30T19:50:01;10.35;;;5.60;;
48526;SDS011;34317;51.660;5.824;2023-09-30T19:52:32;9.88;;;5.13;;
48526;SDS011;34317;51.660;5.824;2023-09-30T19:54:59;10.63;;;6.30;;
48526;SDS011;34317;51.660;5.824;2023-09-30T19:57:26;10.02;;;4.70;;
48526;SDS011;34317;51.660;5.824;2023-09-30T19:59:55;8.55;;;4.85;;
48526;SDS011;34317;51.660;5.824;2023-09-30T20:02:23;8.05;;;4.82;;
48526;SDS011;34317;51.660;5.824;2023-09-30T20:04:50;18.08;;;8.43;;
48526;SDS011;34317;51.660;5.824;2023-09-30T20:07:17;50.10;;;21.05;;
48526;SDS011;34317;51.660;5.824;2023-09-30T20:09:44;44.38;;;19.63;;
48526;SDS011;34317;51.660;5.824;2023-09-30T20:12:12;49.97;;;22.35;;
48526;SDS011;34317;51.660;5.824;2023-09-30T20:14:39;30.67;;;14.25;;
48526;SDS011;34317;51.660;5.824;2023-09-30T20:17:12;19.67;;;10.07;;
48526;SDS011;34317;51.660;5.824;2023-09-30T20:19:39;17.13;;;8.70;;
48526;SDS011;34317;51.660;5.824;2023-09-30T20:22:06;9.55;;;6.22;;
48526;SDS011;34317;51.660;5.824;2023-09-30T20:24:33;10.85;;;5.60;;
48526;SDS011;34317;51.660;5.824;2023-09-30T20:27:01;7.35;;;5.20;;
48526;SDS011;34317;51.660;5.824;2023-09-30T20:29:30;9.60;;;5.63;;
48526;SDS011;34317;51.660;5.824;2023-09-30T20:31:57;11.25;;;5.47;;
48526;SDS011;34317;51.660;5.824;2023-09-30T20:34:24;10.30;;;5.57;;
48526;SDS011;34317;51.660;5.824;2023-09-30T20:36:51;8.18;;;4.90;;
48526;SDS011;34317;51.660;5.824;2023-09-30T20:39:19;9.95;;;5.47;;
48526;SDS011;34317;51.660;5.824;2023-09-30T20:41:48;8.15;;;5.35;;
48526;SDS011;34317;51.660;5.824;2023-09-30T20:44:17;8.23;;;5.28;;
48526;SDS011;34317;51.660;5.824;2023-09-30T20:46:45;9.38;;;5.82;;
48526;SDS011;34317;51.660;5.824;2023-09-30T20:49:14;10.30;;;5.55;;
48526;SDS011;34317;51.660;5.824;2023-09-30T20:51:45;10.07;;;5.70;;
48526;SDS011;34317;51.660;5.824;2023-09-30T20:54:13;10.52;;;6.30;;
48526;SDS011;34317;51.660;5.824;2023-09-30T20:56:40;9.73;;;5.55;;
48526;SDS011;34317;51.660;5.824;2023-09-30T20:59:08;12.98;;;6.32;;
48526;SDS011;34317;51.660;5.824;2023-09-30T21:01:37;11.60;;;5.80;;
48526;SDS011;34317;51.660;5.824;2023-09-30T21:04:05;10.13;;;5.78;;
48526;SDS011;34317;51.660;5.824;2023-09-30T21:06:33;10.10;;;5.97;;
48526;SDS011;34317;51.660;5.824;2023-09-30T21:09:00;10.77;;;6.50;;
48526;SDS011;34317;51.660;5.824;2023-09-30T21:11:27;10.65;;;6.53;;
48526;SDS011;34317;51.660;5.824;2023-09-30T21:13:54;14.07;;;6.78;;
48526;SDS011;34317;51.660;5.824;2023-09-30T21:16:22;15.27;;;7.30;;
48526;SDS011;34317;51.660;5.824;2023-09-30T21:18:49;14.00;;;6.88;;
48526;SDS011;34317;51.660;5.824;2023-09-30T21:21:17;13.90;;;6.55;;
48526;SDS011;34317;51.660;5.824;2023-09-30T21:23:45;10.73;;;6.57;;
48526;SDS011;34317;51.660;5.824;2023-09-30T21:26:12;11.30;;;6.88;;
48526;SDS011;34317;51.660;5.824;2023-09-30T21:28:41;11.55;;;6.63;;
48526;SDS011;34317;51.660;5.824;2023-09-30T21:31:14;12.85;;;7.00;;
48526;SDS011;34317;51.660;5.824;2023-09-30T21:33:43;11.27;;;6.75;;
48526;SDS011;34317;51.660;5.824;2023-09-30T21:36:12;11.70;;;6.70;;
48526;SDS011;34317;51.660;5.824;2023-09-30T21:38:40;10.80;;;6.35;;
48526;SDS011;34317;51.660;5.824;2023-09-30T21:41:13;14.65;;;7.07;;
48526;SDS011;34317;51.660;5.824;2023-09-30T21:43:46;10.77;;;6.95;;
48526;SDS011;34317;51.660;5.824;2023-09-30T21:46:14;10.38;;;6.25;;
48526;SDS011;34317;51.660;5.824;2023-09-30T21:48:41;13.18;;;6.82;;
48526;SDS011;34317;51.660;5.824;2023-09-30T21:51:08;15.73;;;8.50;;
48526;SDS011;34317;51.660;5.824;2023-09-30T21:53:36;14.77;;;8.52;;
48526;SDS011;34317;51.660;5.824;2023-09-30T21:56:03;12.50;;;7.55;;
48526;SDS011;34317;51.660;5.824;2023-09-30T21:58:31;14.88;;;8.55;;
48526;SDS011;34317;51.660;5.824;2023-09-30T22:00:59;16.25;;;8.00;;
48526;SDS011;34317;51.660;5.824;2023-09-30T22:03:26;14.70;;;8.77;;
48526;SDS011;34317;51.660;5.824;2023-09-30T22:05:55;17.98;;;8.40;;
48526;SDS011;34317;51.660;5.824;2023-09-30T22:08:23;13.75;;;8.70;;
48526;SDS011;34317;51.660;5.824;2023-09-30T22:10:52;14.73;;;8.70;;
48526;SDS011;34317;51.660;5.824;2023-09-30T22:13:21;13.05;;;8.40;;
48526;SDS011;34317;51.660;5.824;2023-09-30T22:15:50;13.55;;;8.45;;
48526;SDS011;34317;51.660;5.824;2023-09-30T22:18:18;13.85;;;8.10;;
48526;SDS011;34317;51.660;5.824;2023-09-30T22:20:46;13.93;;;8.77;;
48526;SDS011;34317;51.660;5.824;2023-09-30T22:23:13;13.93;;;8.45;;
48526;SDS011;34317;51.660;5.824;2023-09-30T22:25:40;14.48;;;8.93;;
48526;SDS011;34317;51.660;5.824;2023-09-30T22:28:08;14.20;;;8.38;;
48526;SDS011;34317;51.660;5.824;2023-09-30T22:30:36;11.70;;;8.15;;
48526;SDS011;34317;51.660;5.824;2023-09-30T22:33:04;13.15;;;8.13;;
48526;SDS011;34317;51.660;5.824;2023-09-30T22:35:33;14.10;;;7.93;;
48526;SDS011;34317;51.660;5.824;2023-09-30T22:38:00;14.98;;;8.65;;
48526;SDS011;34317;51.660;5.824;2023-09-30T22:40:28;13.13;;;8.02;;
48526;SDS011;34317;51.660;5.824;2023-09-30T22:42:55;13.18;;;8.32;;
48526;SDS011;34317;51.660;5.824;2023-09-30T22:45:26;15.48;;;7.80;;
48526;SDS011;34317;51.660;5.824;2023-09-30T22:47:53;12.15;;;7.45;;
48526;SDS011;34317;51.660;5.824;2023-09-30T22:50:21;13.50;;;7.18;;
48526;SDS011;34317;51.660;5.824;2023-09-30T22:52:49;10.38;;;6.95;;
48526;SDS011;34317;51.660;5.824;2023-09-30T22:55:17;13.80;;;7.53;;
48526;SDS011;34317;51.660;5.824;2023-09-30T22:57:46;13.23;;;7.03;;
48526;SDS011;34317;51.660;5.824;2023-09-30T23:00:15;13.65;;;7.47;;
48526;SDS011;34317;51.660;5.824;2023-09-30T23:02:43;19.23;;;7.80;;
48526;SDS011;34317;51.660;5.824;2023-09-30T23:05:12;12.70;;;7.50;;
48526;SDS011;34317;51.660;5.824;2023-09-30T23:07:42;12.57;;;7.15;;
48526;SDS011;34317;51.660;5.824;2023-09-30T23:10:13;12.10;;;7.43;;
48526;SDS011;34317;51.660;5.824;2023-09-30T23:12:41;11.48;;;7.25;;
48526;SDS011;34317;51.660;5.824;2023-09-30T23:15:09;11.90;;;7.43;;
48526;SDS011;34317;51.660;5.824;2023-09-30T23:17:39;11.35;;;7.38;;
48526;SDS011;34317;51.660;5.824;2023-09-30T23:20:12;11.93;;;8.00;;
48526;SDS011;34317;51.660;5.824;2023-09-30T23:22:42;12.20;;;7.30;;
48526;SDS011;34317;51.660;5.824;2023-09-30T23:25:19;13.75;;;7.80;;
48526;SDS011;34317;51.660;5.824;2023-09-30T23:28:02;11.73;;;7.13;;
48526;SDS011;34317;51.660;5.824;2023-09-30T23:30:30;13.05;;;7.35;;
48526;SDS011;34317;51.660;5.824;2023-09-30T23:32:57;13.85;;;7.65;;
48526;SDS011;34317;51.660;5.824;2023-09-30T23:35:25;11.10;;;7.15;;
48526;SDS011;34317;51.660;5.824;2023-09-30T23:37:54;11.55;;;7.28;;
48526;SDS011;34317;51.660;5.824;2023-09-30T23:40:24;13.52;;;7.38;;
48526;SDS011;34317;51.660;5.824;2023-09-30T23:42:52;12.40;;;6.78;;
48526;SDS011;34317;51.660;5.824;2023-09-30T23:45:24;12.57;;;7.53;;
48526;SDS011;34317;51.660;5.824;2023-09-30T23:47:58;11.90;;;7.25;;
48526;SDS011;34317;51.660;5.824;2023-09-30T23:50:25;11.25;;;7.60;;
48526;SDS011;34317;51.660;5.824;2023-09-30T23:52:53;11.45;;;7.43;;
48526;SDS011;34317;51.660;5.824;2023-09-30T23:55:21;13.75;;;7.68;;
48526;SDS011;34317;51.660;5.824;2023-09-30T23:57:52;12.23;;;7.47;;
